Time;durP1;ratioP1;P1;durP2;ratioP2;P2;SDS_P1;SDS_P2;PMS_P1;PMS_P2;Temp;Humidity;BMP_temperature;BMP_pressure;BME280_temperature;BME280_humidity;BME280_pressure;Samples;Min_cycle;Max_cycle;Signal;HPM_P1;HPM_P2
2021/01/09 00:00:05;;;;;;;26.70;10.95;;;;;;;2.60;100.00;101206.06;4948067;28;20050;-83
2021/01/09 00:02:38;;;;;;;25.25;11.00;;;;;;;2.64;100.00;101209.75;4950863;29;20071;-84
2021/01/09 00:05:05;;;;;;;29.00;12.23;;;;;;;2.61;100.00;101210.34;4938923;29;20095;-83
2021/01/09 00:07:31;;;;;;;27.05;11.02;;;;;;;2.61;100.00;101213.75;4938475;28;20059;-82
2021/01/09 00:09:57;;;;;;;26.10;11.60;;;;;;;2.69;100.00;101221.09;4954154;29;20054;-84
2021/01/09 00:12:22;;;;;;;31.17;11.32;;;;;;;2.60;100.00;101208.72;4955980;29;20039;-84
2021/01/09 00:14:48;;;;;;;30.05;11.68;;;;;;;2.57;100.00;101204.00;4934763;29;20102;-84
2021/01/09 00:17:13;;;;;;;27.63;11.10;;;;;;;2.55;100.00;101206.16;4955904;29;20035;-83
2021/01/09 00:19:39;;;;;;;25.85;11.90;;;;;;;2.53;100.00;101213.63;4954886;29;20035;-83
2021/01/09 00:22:05;;;;;;;24.15;11.07;;;;;;;2.49;100.00;101207.31;4956511;29;20031;-84
2021/01/09 00:24:31;;;;;;;27.00;11.63;;;;;;;2.50;100.00;101214.19;4934245;29;20039;-82
2021/01/09 00:26:56;;;;;;;25.52;11.90;;;;;;;2.52;100.00;101209.38;4950249;29;20488;-82
2021/01/09 00:29:22;;;;;;;24.10;10.70;;;;;;;2.53;100.00;101224.25;4954741;29;20034;-83
2021/01/09 00:31:48;;;;;;;26.58;11.30;;;;;;;2.52;100.00;101220.00;4952398;28;20026;-82
2021/01/09 00:34:13;;;;;;;26.45;11.40;;;;;;;2.49;100.00;101221.38;4938502;29;20070;-83
2021/01/09 00:36:45;;;;;;;25.33;10.85;;;;;;;2.49;100.00;101218.72;4940847;29;20111;-84
2021/01/09 00:39:11;;;;;;;23.25;10.55;;;;;;;2.55;100.00;101225.56;4961769;28;20039;-82
2021/01/09 00:41:36;;;;;;;24.05;10.43;;;;;;;2.50;100.00;101225.63;4955285;28;20035;-83
2021/01/09 00:44:02;;;;;;;24.35;10.52;;;;;;;2.41;100.00;101230.00;4943584;29;20043;-83
2021/01/09 00:47:14;;;;;;;22.55;10.82;;;;;;;2.51;100.00;101237.03;4952026;29;20035;-83
2021/01/09 00:49:40;;;;;;;21.60;9.60;;;;;;;2.49;100.00;101232.03;4949505;29;20175;-83
2021/01/09 00:52:06;;;;;;;23.98;10.02;;;;;;;2.50;100.00;101235.44;4954736;29;20122;-83
2021/01/09 00:54:36;;;;;;;20.63;10.07;;;;;;;2.49;100.00;101236.53;4954055;29;20023;-82
2021/01/09 00:57:01;;;;;;;21.92;9.98;;;;;;;2.55;100.00;101228.22;4934276;29;20094;-83
2021/01/09 00:59:27;;;;;;;24.48;10.15;;;;;;;2.58;100.00;101234.81;4947014;29;20039;-83
2021/01/09 01:01:53;;;;;;;22.10;9.77;;;;;;;2.57;100.00;101235.91;4935328;29;20493;-83
2021/01/09 01:04:19;;;;;;;20.23;9.10;;;;;;;2.57;100.00;101236.69;4935799;29;20466;-83
2021/01/09 01:06:46;;;;;;;24.15;9.95;;;;;;;2.57;100.00;101239.34;4952120;29;20492;-83
2021/01/09 01:09:11;;;;;;;18.92;8.60;;;;;;;2.61;100.00;101242.22;4936174;29;20042;-83
2021/01/09 01:11:39;;;;;;;23.77;9.65;;;;;;;2.58;100.00;101248.91;4959256;28;20031;-83
2021/01/09 01:14:04;;;;;;;21.17;9.25;;;;;;;2.58;100.00;101248.91;4953399;29;20031;-83
2021/01/09 01:16:30;;;;;;;20.80;9.93;;;;;;;2.56;100.00;101247.59;4942487;29;20098;-84
2021/01/09 01:18:56;;;;;;;23.92;9.52;;;;;;;2.64;100.00;101250.41;4949605;28;20046;-83
2021/01/09 01:21:22;;;;;;;22.27;9.55;;;;;;;2.62;100.00;101254.41;4953717;29;20394;-83
2021/01/09 01:23:47;;;;;;;23.58;10.05;;;;;;;2.55;100.00;101254.78;4953273;29;20038;-81
2021/01/09 01:26:13;;;;;;;23.40;9.15;;;;;;;2.50;100.00;101262.03;4926781;29;20043;-83
2021/01/09 01:28:41;;;;;;;21.58;9.93;;;;;;;2.43;100.00;101261.59;4936093;29;20275;-83
2021/01/09 01:31:08;;;;;;;22.65;9.88;;;;;;;2.47;100.00;101262.59;4934304;29;20062;-83
2021/01/09 01:33:33;;;;;;;19.40;9.05;;;;;;;2.54;100.00;101269.16;4935344;29;20035;-84
2021/01/09 01:36:19;;;;;;;21.10;9.52;;;;;;;2.58;100.00;101269.34;4934912;29;20034;-83
2021/01/09 01:38:45;;;;;;;22.48;9.40;;;;;;;2.59;100.00;101270.97;4919668;29;20099;-82
2021/01/09 01:41:30;;;;;;;21.10;9.30;;;;;;;2.52;100.00;101267.84;4914402;29;20040;-84
2021/01/09 01:43:56;;;;;;;20.13;8.80;;;;;;;2.47;100.00;101267.91;4855647;29;20572;-83
2021/01/09 01:46:24;;;;;;;21.20;9.23;;;;;;;2.43;100.00;101267.69;4838158;29;20132;-83
2021/01/09 01:49:10;;;;;;;22.70;9.52;;;;;;;2.41;100.00;101263.75;4852096;29;20137;-83
2021/01/09 01:51:36;;;;;;;23.15;9.10;;;;;;;2.52;100.00;101270.50;4772900;30;20259;-83
2021/01/09 01:54:01;;;;;;;21.48;8.90;;;;;;;2.53;100.00;101272.09;4757833;30;20142;-83
2021/01/09 01:56:27;;;;;;;19.67;9.25;;;;;;;2.41;100.00;101269.06;4785579;29;20112;-83
2021/01/09 01:58:52;;;;;;;20.23;9.32;;;;;;;2.40;100.00;101270.91;4770324;30;20522;-84
2021/01/09 02:01:19;;;;;;;19.98;9.20;;;;;;;2.48;100.00;101280.13;4785894;29;20081;-82
2021/01/09 02:03:44;;;;;;;20.05;9.20;;;;;;;2.43;100.00;101274.88;4769362;30;20050;-84
2021/01/09 02:06:12;;;;;;;23.23;9.63;;;;;;;2.47;100.00;101276.69;4769775;29;20035;-83
2021/01/09 02:09:12;;;;;;;18.73;9.13;;;;;;;2.49;100.00;101279.06;4778047;29;20600;-83
2021/01/09 02:11:46;;;;;;;21.08;9.05;;;;;;;2.54;100.00;101284.28;4756762;29;20099;-83
2021/01/09 02:14:41;;;;;;;20.83;9.75;;;;;;;2.54;100.00;101282.44;4785496;29;20054;-83
2021/01/09 02:17:07;;;;;;;21.58;9.57;;;;;;;2.60;100.00;101285.81;4757409;30;20494;-83
2021/01/09 02:19:42;;;;;;;20.48;8.40;;;;;;;2.64;100.00;101284.97;4783803;29;20047;-83
2021/01/09 02:22:15;;;;;;;22.52;10.02;;;;;;;2.62;100.00;101287.13;4844134;29;20090;-83
2021/01/09 02:24:42;;;;;;;24.77;9.13;;;;;;;2.57;100.00;101281.88;4825365;29;20098;-83
2021/01/09 02:27:09;;;;;;;25.75;9.90;;;;;;;2.63;100.00;101282.59;4860785;29;20141;-83
2021/01/09 02:29:40;;;;;;;23.65;9.82;;;;;;;2.55;100.00;101285.91;4928144;29;20180;-83
2021/01/09 02:32:09;;;;;;;19.52;9.05;;;;;;;2.52;100.00;101281.13;4952680;28;20039;-84
2021/01/09 02:34:40;;;;;;;22.90;9.77;;;;;;;2.64;100.00;101284.16;4956599;29;20118;-83
2021/01/09 02:37:06;;;;;;;22.98;9.82;;;;;;;2.64;100.00;101292.13;4935055;29;20031;-83
2021/01/09 02:39:32;;;;;;;22.92;10.30;;;;;;;2.62;100.00;101281.00;4946611;29;20086;-83
2021/01/09 02:41:58;;;;;;;22.75;9.95;;;;;;;2.64;100.00;101289.47;4939443;29;20031;-84
2021/01/09 02:44:23;;;;;;;20.67;9.48;;;;;;;2.57;100.00;101283.75;4939174;29;20055;-84
2021/01/09 02:46:49;;;;;;;23.08;10.13;;;;;;;2.58;100.00;101293.28;4945684;29;20028;-84
2021/01/09 02:49:14;;;;;;;24.20;10.20;;;;;;;2.57;100.00;101283.75;4945761;29;20035;-84
2021/01/09 02:51:40;;;;;;;22.40;9.63;;;;;;;2.61;100.00;101293.50;4957934;29;20024;-84
2021/01/09 02:54:05;;;;;;;23.38;10.02;;;;;;;2.59;100.00;101289.56;4939154;29;20467;-84
2021/01/09 02:56:31;;;;;;;23.95;9.77;;;;;;;2.61;100.00;101293.50;4946044;29;21109;-83
2021/01/09 02:58:56;;;;;;;24.08;10.65;;;;;;;2.64;100.00;101286.81;4945475;28;20436;-85
2021/01/09 03:01:29;;;;;;;25.80;10.93;;;;;;;2.70;100.00;101302.44;4943577;29;20039;-84
2021/01/09 03:03:58;;;;;;;22.10;9.95;;;;;;;2.75;100.00;101301.56;4954614;29;20126;-84
2021/01/09 03:06:25;;;;;;;23.23;10.48;;;;;;;2.72;100.00;101297.63;4955752;29;20054;-83
2021/01/09 03:08:52;;;;;;;24.40;10.48;;;;;;;2.75;100.00;101307.69;4944798;28;20035;-84
2021/01/09 03:11:18;;;;;;;26.48;11.18;;;;;;;2.63;100.00;101304.63;4955762;29;20047;-84
2021/01/09 03:13:45;;;;;;;24.13;10.38;;;;;;;2.69;100.00;101305.38;4937420;29;20807;-83
2021/01/09 03:16:10;;;;;;;22.45;10.18;;;;;;;2.68;100.00;101307.25;4954311;29;20039;-83
2021/01/09 03:18:36;;;;;;;25.55;10.10;;;;;;;2.73;100.00;101304.50;4953306;29;20039;-84
2021/01/09 03:21:02;;;;;;;22.88;10.10;;;;;;;2.70;100.00;101314.94;4942782;29;20027;-82
2021/01/09 03:23:29;;;;;;;24.67;10.52;;;;;;;2.70;100.00;101323.69;4945211;29;20031;-83
2021/01/09 03:25:54;;;;;;;24.05;10.95;;;;;;;2.68;100.00;101319.75;4939055;29;20027;-83
2021/01/09 03:28:20;;;;;;;25.55;11.00;;;;;;;2.65;100.00;101325.63;4953001;29;20031;-83
2021/01/09 03:30:45;;;;;;;23.30;10.15;;;;;;;2.67;100.00;101316.28;4953176;28;20041;-82
2021/01/09 03:33:11;;;;;;;23.92;10.25;;;;;;;2.66;100.00;101319.22;4955800;29;20034;-84
2021/01/09 03:35:37;;;;;;;27.52;11.48;;;;;;;2.64;100.00;101324.03;4937172;29;20791;-83
2021/01/09 03:38:22;;;;;;;27.17;10.80;;;;;;;2.66;100.00;101321.88;4939557;29;20035;-84
2021/01/09 03:40:48;;;;;;;23.35;10.07;;;;;;;2.71;100.00;101325.28;4860186;29;20124;-83
2021/01/09 03:43:14;;;;;;;26.05;11.10;;;;;;;2.73;100.00;101327.63;4862404;29;20136;-83
2021/01/09 03:45:39;;;;;;;24.92;10.80;;;;;;;2.80;100.00;101321.97;4876144;29;20080;-83
2021/01/09 03:48:05;;;;;;;24.23;11.13;;;;;;;2.77;100.00;101333.19;4864086;29;20532;-84
2021/01/09 03:50:31;;;;;;;27.00;11.02;;;;;;;2.69;100.00;101332.75;4875826;29;20089;-84
2021/01/09 03:52:56;;;;;;;29.70;11.95;;;;;;;2.72;100.00;101328.72;4846203;29;20052;-83
2021/01/09 03:55:42;;;;;;;24.35;10.52;;;;;;;2.72;100.00;101328.72;4862365;29;20067;-83
2021/01/09 03:58:08;;;;;;;26.40;10.90;;;;;;;2.76;100.00;101332.41;4807622;29;20058;-83
2021/01/09 04:00:33;;;;;;;26.92;11.20;;;;;;;2.85;100.00;101333.34;4819649;29;20058;-83
2021/01/09 04:02:59;;;;;;;25.45;11.00;;;;;;;2.85;100.00;101341.31;4821280;29;20172;-83
2021/01/09 04:05:24;;;;;;;27.55;11.10;;;;;;;2.78;100.00;101332.09;4820550;29;20054;-83
2021/01/09 04:07:50;;;;;;;27.75;11.75;;;;;;;2.65;100.00;101331.72;4823571;29;20130;-83
2021/01/09 04:10:15;;;;;;;31.13;11.45;;;;;;;2.74;100.00;101337.22;4803371;29;20046;-84
2021/01/09 04:12:44;;;;;;;27.40;11.48;;;;;;;2.71;100.00;101343.09;4823508;29;20034;-83
2021/01/09 04:15:11;;;;;;;28.10;11.32;;;;;;;2.72;100.00;101342.81;4816341;29;20051;-83
2021/01/09 04:17:37;;;;;;;26.48;11.40;;;;;;;2.68;100.00;101355.09;4815490;29;20045;-83
2021/01/09 04:20:03;;;;;;;25.85;11.30;;;;;;;2.73;100.00;101352.38;4875481;29;20511;-83
2021/01/09 04:22:28;;;;;;;27.48;11.68;;;;;;;2.75;100.00;101360.03;4862972;29;20568;-83
2021/01/09 04:24:54;;;;;;;28.80;12.18;;;;;;;2.72;100.00;101361.44;4877266;29;20131;-83
2021/01/09 04:27:19;;;;;;;27.67;11.68;;;;;;;2.86;100.00;101366.84;4865749;29;20060;-84
2021/01/09 04:29:45;;;;;;;24.98;10.65;;;;;;;2.70;100.00;101363.59;4860667;29;20093;-84
2021/01/09 04:32:10;;;;;;;26.23;11.77;;;;;;;2.80;100.00;101359.22;4874674;29;20041;-84
2021/01/09 04:34:36;;;;;;;25.60;11.40;;;;;;;2.70;100.00;101373.41;4886102;29;20075;-85
2021/01/09 04:37:01;;;;;;;27.88;11.45;;;;;;;2.63;100.00;101371.09;4939186;29;20409;-85
2021/01/09 04:39:27;;;;;;;22.77;11.07;;;;;;;2.64;100.00;101370.03;4942628;29;20034;-83
2021/01/09 04:42:13;;;;;;;24.92;11.27;;;;;;;2.70;100.00;101368.91;4938533;29;20487;-83
2021/01/09 04:44:38;;;;;;;23.63;10.38;;;;;;;2.69;100.00;101369.97;4861487;29;20049;-84
2021/01/09 04:47:05;;;;;;;25.63;11.48;;;;;;;2.75;100.00;101371.47;4865171;29;20048;-85
2021/01/09 04:49:31;;;;;;;24.90;10.68;;;;;;;2.74;100.00;101375.22;4867174;29;20076;-85
2021/01/09 04:51:57;;;;;;;25.85;11.45;;;;;;;2.75;100.00;101376.81;4880197;29;20051;-84
2021/01/09 04:54:24;;;;;;;26.52;11.07;;;;;;;2.74;100.00;101388.53;4867935;29;20069;-85
2021/01/09 04:56:52;;;;;;;24.48;10.93;;;;;;;2.70;100.00;101390.16;4856284;29;20079;-85
2021/01/09 04:59:18;;;;;;;25.17;11.07;;;;;;;2.72;100.00;101389.88;4866099;29;20044;-85
2021/01/09 05:01:46;;;;;;;23.30;11.65;;;;;;;2.63;100.00;101395.00;4861067;29;20109;-84
2021/01/09 05:04:13;;;;;;;25.23;11.35;;;;;;;2.66;100.00;101397.13;4862629;29;20364;-85
2021/01/09 05:06:39;;;;;;;26.80;11.40;;;;;;;2.66;100.00;101389.16;4863219;29;20047;-84
2021/01/09 05:09:06;;;;;;;25.65;11.25;;;;;;;2.67;100.00;101404.00;4864382;29;20049;-82
2021/01/09 05:11:34;;;;;;;26.15;11.73;;;;;;;2.73;100.00;101410.06;4863047;29;20048;-85
2021/01/09 05:14:01;;;;;;;26.83;11.35;;;;;;;2.79;100.00;101410.81;4856154;29;20433;-84
2021/01/09 05:16:27;;;;;;;27.38;11.05;;;;;;;2.83;100.00;101406.50;4871382;29;20085;-84
2021/01/09 05:18:52;;;;;;;25.70;11.30;;;;;;;2.81;100.00;101413.97;4868756;29;20049;-85
2021/01/09 05:21:18;;;;;;;24.48;11.80;;;;;;;2.84;100.00;101408.88;4895883;29;20035;-85
2021/01/09 05:23:52;;;;;;;27.83;11.57;;;;;;;2.80;100.00;101407.06;4937100;29;20041;-83
2021/01/09 05:26:22;;;;;;;26.77;12.10;;;;;;;2.79;100.00;101414.25;4929539;29;20036;-84
2021/01/09 05:28:49;;;;;;;26.85;12.05;;;;;;;2.79;100.00;101414.25;4941711;29;20043;-83
2021/01/09 05:31:15;;;;;;;28.55;12.27;;;;;;;2.83;100.00;101412.59;4944887;29;20082;-84
2021/01/09 05:33:41;;;;;;;29.85;12.55;;;;;;;2.78;100.00;101412.66;4939607;29;20035;-82
2021/01/09 05:36:08;;;;;;;30.23;12.75;;;;;;;2.80;100.00;101415.84;4939389;29;20046;-84
2021/01/09 05:38:38;;;;;;;26.38;11.70;;;;;;;2.78;100.00;101428.63;4937884;29;20110;-86
2021/01/09 05:41:09;;;;;;;26.77;11.63;;;;;;;2.78;100.00;101425.97;4954754;29;20050;-85
2021/01/09 05:43:35;;;;;;;30.67;12.35;;;;;;;2.78;100.00;101423.31;4937623;29;20023;-84
2021/01/09 05:46:01;;;;;;;24.95;11.68;;;;;;;2.69;100.00;101428.44;4937294;29;20369;-85
2021/01/09 05:48:28;;;;;;;26.77;12.13;;;;;;;2.79;100.00;101435.50;4935704;29;20034;-84
2021/01/09 05:50:55;;;;;;;29.45;12.88;;;;;;;2.79;100.00;101438.16;4954122;29;20042;-85
2021/01/09 05:53:37;;;;;;;29.15;12.98;;;;;;;2.79;100.00;101437.41;4935973;29;20174;-85
2021/01/09 05:56:04;;;;;;;30.27;12.40;;;;;;;2.75;100.00;101443.25;4939083;29;20046;-86
2021/01/09 05:58:30;;;;;;;29.75;12.85;;;;;;;2.67;100.00;101453.75;4952152;29;20074;-84
2021/01/09 06:00:57;;;;;;;26.23;11.73;;;;;;;2.69;100.00;101447.06;4937356;29;20587;-85
2021/01/09 06:03:34;;;;;;;29.88;13.57;;;;;;;2.68;100.00;101450.81;4956692;29;20027;-85
2021/01/09 06:06:04;;;;;;;26.92;12.25;;;;;;;2.82;100.00;101453.56;4937063;29;20121;-85
2021/01/09 06:08:32;;;;;;;30.80;12.10;;;;;;;2.73;100.00;101453.38;4942368;29;20035;-82
2021/01/09 06:11:07;;;;;;;27.30;11.77;;;;;;;2.74;100.00;101455.00;4937847;29;20299;-85
2021/01/09 06:13:37;;;;;;;30.48;13.75;;;;;;;2.76;100.00;101457.34;4937962;29;20051;-85
2021/01/09 06:16:05;;;;;;;30.30;13.23;;;;;;;2.66;100.00;101462.78;4948172;29;21519;-84
2021/01/09 06:18:32;;;;;;;33.10;13.32;;;;;;;2.66;100.00;101462.78;4935252;29;20039;-83
2021/01/09 06:21:18;;;;;;;28.90;12.63;;;;;;;2.66;100.00;101468.91;4954129;28;20644;-85
2021/01/09 06:23:45;;;;;;;33.72;12.95;;;;;;;2.69;100.00;101467.56;4878336;29;21543;-84
2021/01/09 06:26:12;;;;;;;24.95;12.02;;;;;;;2.70;100.00;101477.09;4869408;29;20132;-84
2021/01/09 06:28:42;;;;;;;29.30;13.10;;;;;;;2.72;100.00;101474.94;4869184;29;20097;-84
2021/01/09 06:31:15;;;;;;;28.85;12.68;;;;;;;2.72;100.00;101480.28;4867252;29;20420;-85
2021/01/09 06:33:42;;;;;;;30.85;12.68;;;;;;;2.74;100.00;101481.56;4881917;29;20498;-84
2021/01/09 06:36:12;;;;;;;28.63;12.30;;;;;;;2.78;100.00;101481.00;4873231;29;20466;-85
2021/01/09 06:38:40;;;;;;;28.50;12.55;;;;;;;2.71;100.00;101484.78;4868052;29;20080;-85
2021/01/09 06:41:11;;;;;;;28.90;12.98;;;;;;;2.75;100.00;101477.84;4866481;29;20243;-84
2021/01/09 06:43:39;;;;;;;26.70;12.45;;;;;;;2.80;100.00;101492.94;4880369;29;20043;-85
2021/01/09 06:46:10;;;;;;;30.33;12.70;;;;;;;2.73;100.00;101481.84;4863295;29;20133;-84
2021/01/09 06:48:36;;;;;;;30.67;13.38;;;;;;;2.74;100.00;101486.09;4868551;29;20212;-83
2021/01/09 06:51:02;;;;;;;29.48;12.18;;;;;;;2.80;100.00;101494.81;4871175;29;20753;-82
2021/01/09 06:53:28;;;;;;;28.95;12.45;;;;;;;2.80;100.00;101498.28;4867209;29;20060;-83
2021/01/09 06:55:54;;;;;;;27.50;12.18;;;;;;;2.72;100.00;101491.69;4867079;29;20123;-84
2021/01/09 06:58:26;;;;;;;26.60;12.30;;;;;;;2.72;100.00;101498.88;4875525;29;20505;-84
2021/01/09 07:00:51;;;;;;;29.52;13.13;;;;;;;2.81;100.00;101496.41;4903403;29;20111;-84
2021/01/09 07:03:21;;;;;;;30.75;12.90;;;;;;;2.65;100.00;101503.75;4939402;29;20035;-83
2021/01/09 07:05:47;;;;;;;29.80;12.98;;;;;;;2.62;100.00;101498.97;4936680;29;20571;-83
2021/01/09 07:08:29;;;;;;;28.33;11.85;;;;;;;2.59;100.00;101508.28;4939477;29;20034;-83
2021/01/09 07:10:59;;;;;;;28.45;12.77;;;;;;;2.61;100.00;101510.69;4939976;29;20042;-82
2021/01/09 07:13:26;;;;;;;31.80;13.27;;;;;;;2.61;100.00;101511.47;4954229;29;20082;-82
2021/01/09 07:16:12;;;;;;;27.63;11.95;;;;;;;2.49;100.00;101516.38;4942050;29;20023;-84
2021/01/09 07:18:49;;;;;;;29.10;12.63;;;;;;;2.54;100.00;101518.97;4934584;29;20063;-82
2021/01/09 07:21:19;;;;;;;28.02;12.07;;;;;;;2.59;100.00;101526.13;4945013;29;20039;-83
2021/01/09 07:23:52;;;;;;;29.08;13.00;;;;;;;2.65;100.00;101525.78;4937244;29;20036;-82
2021/01/09 07:26:19;;;;;;;28.33;12.18;;;;;;;2.59;100.00;101531.44;4955758;29;20059;-83
2021/01/09 07:28:46;;;;;;;30.33;12.57;;;;;;;2.60;100.00;101531.16;4939630;29;20732;-83
2021/01/09 07:31:15;;;;;;;29.45;12.23;;;;;;;2.50;100.00;101533.09;4945488;29;20504;-82
2021/01/09 07:33:46;;;;;;;28.73;12.13;;;;;;;2.55;100.00;101531.22;4956998;29;20023;-83
2021/01/09 07:36:13;;;;;;;27.90;12.15;;;;;;;2.55;100.00;101541.03;4958269;28;20039;-82
2021/01/09 07:38:45;;;;;;;32.35;14.55;;;;;;;2.64;100.00;101539.34;4953352;29;20023;-83
2021/01/09 07:41:49;;;;;;;30.98;12.75;;;;;;;2.62;100.00;101550.28;4956395;29;20033;-82
2021/01/09 07:44:20;;;;;;;30.13;12.75;;;;;;;2.57;100.00;101542.34;4916212;29;20052;-82
2021/01/09 07:46:56;;;;;;;30.83;12.73;;;;;;;2.58;100.00;101551.09;4902063;29;20044;-83
2021/01/09 07:49:30;;;;;;;31.52;12.50;;;;;;;2.66;100.00;101547.84;4905957;29;20492;-83
2021/01/09 07:52:03;;;;;;;29.27;11.85;;;;;;;2.59;100.00;101544.72;4897233;29;20044;-83
2021/01/09 07:54:29;;;;;;;31.52;12.57;;;;;;;2.66;100.00;101540.66;4915917;29;20032;-83
2021/01/09 07:57:15;;;;;;;25.92;11.40;;;;;;;2.66;100.00;101545.19;4886127;29;20028;-82
2021/01/09 07:59:41;;;;;;;28.02;11.57;;;;;;;2.57;100.00;101549.53;4862139;29;20086;-82
2021/01/09 08:02:07;;;;;;;26.77;11.10;;;;;;;2.68;100.00;101554.47;4868840;29;20096;-83
2021/01/09 08:04:32;;;;;;;27.23;11.52;;;;;;;2.58;100.00;101551.09;4857235;29;20049;-82
2021/01/09 08:06:58;;;;;;;25.52;11.50;;;;;;;2.47;100.00;101557.59;4861232;29;20041;-83
2021/01/09 08:09:27;;;;;;;25.27;11.18;;;;;;;2.44;100.00;101552.84;4849216;29;20056;-81
2021/01/09 08:11:53;;;;;;;28.50;11.75;;;;;;;2.50;100.00;101564.97;4875058;29;20056;-82
2021/01/09 08:14:18;;;;;;;28.02;11.65;;;;;;;2.41;100.00;101556.84;4862266;29;20507;-83
2021/01/09 08:16:44;;;;;;;27.92;10.95;;;;;;;2.49;100.00;101571.38;4839327;29;20038;-82
2021/01/09 08:19:12;;;;;;;26.80;10.63;;;;;;;2.44;100.00;101579.41;4847708;29;20426;-83
2021/01/09 08:21:38;;;;;;;27.60;11.20;;;;;;;2.43;100.00;101565.31;4843582;29;20045;-83
2021/01/09 08:24:04;;;;;;;25.35;11.65;;;;;;;2.47;100.00;101578.84;4869640;29;20048;-82
2021/01/09 08:26:32;;;;;;;28.25;11.23;;;;;;;2.51;100.00;101582.53;4875573;29;20022;-82
2021/01/09 08:29:17;;;;;;;24.85;10.32;;;;;;;2.53;100.00;101580.41;4868927;29;20478;-83
2021/01/09 08:31:43;;;;;;;27.08;11.50;;;;;;;2.55;100.00;101586.22;4822116;29;20049;-83
2021/01/09 08:34:12;;;;;;;30.58;12.23;;;;;;;2.66;100.00;101587.72;4828339;29;20038;-83
2021/01/09 08:36:41;;;;;;;24.35;10.77;;;;;;;2.49;100.00;101585.47;4864624;29;20056;-83
2021/01/09 08:39:07;;;;;;;28.85;11.40;;;;;;;2.52;100.00;101600.84;4884521;29;20457;-82
2021/01/09 08:41:38;;;;;;;25.85;10.88;;;;;;;2.61;100.00;101596.53;4866003;29;20039;-83
2021/01/09 08:44:14;;;;;;;32.08;12.52;;;;;;;2.51;100.00;101593.16;4883277;29;20692;-83
2021/01/09 08:47:03;;;;;;;24.90;10.63;;;;;;;2.51;100.00;101604.59;4857630;29;20120;-83
2021/01/09 08:49:35;;;;;;;25.50;10.80;;;;;;;2.48;100.00;101605.13;4810536;29;20050;-83
2021/01/09 08:52:06;;;;;;;24.63;11.02;;;;;;;2.42;100.00;101605.47;4812550;29;20050;-82
2021/01/09 08:54:33;;;;;;;25.38;11.50;;;;;;;2.54;100.00;101604.03;4831772;29;20111;-81
2021/01/09 08:57:01;;;;;;;25.92;11.18;;;;;;;2.50;100.00;101615.47;4824925;29;20034;-82
2021/01/09 08:59:27;;;;;;;26.63;10.98;;;;;;;2.54;100.00;101609.34;4840835;29;20097;-82
2021/01/09 09:01:57;;;;;;;27.20;11.63;;;;;;;2.54;100.00;101617.31;4826362;29;20073;-83
2021/01/09 09:04:24;;;;;;;25.88;10.70;;;;;;;2.55;100.00;101621.59;4832289;29;20116;-83
2021/01/09 09:07:03;;;;;;;26.70;11.02;;;;;;;2.56;100.00;101622.34;4817677;29;20042;-82
2021/01/09 09:09:29;;;;;;;24.95;11.05;;;;;;;2.66;100.00;101622.28;4905784;29;20417;-82
2021/01/09 09:11:54;;;;;;;27.65;11.23;;;;;;;2.65;100.00;101629.47;4872955;29;20047;-83
2021/01/09 09:14:20;;;;;;;24.52;10.63;;;;;;;2.60;100.00;101631.38;4916480;29;20040;-82
2021/01/09 09:16:55;;;;;;;25.90;11.30;;;;;;;2.66;100.00;101633.72;4886645;29;20033;-83
2021/01/09 09:19:21;;;;;;;26.90;10.63;;;;;;;2.77;100.00;101626.44;4878176;29;20184;-83
2021/01/09 09:21:49;;;;;;;24.23;10.40;;;;;;;2.73;100.00;101633.38;4869802;29;20534;-83
2021/01/09 09:24:16;;;;;;;23.75;10.50;;;;;;;2.70;100.00;101632.09;4892228;29;20032;-82
2021/01/09 09:26:46;;;;;;;26.15;11.02;;;;;;;2.72;100.00;101626.50;4913512;29;20587;-83
2021/01/09 09:29:13;;;;;;;24.67;10.70;;;;;;;2.75;100.00;101629.38;4939855;29;20047;-83
2021/01/09 09:31:40;;;;;;;23.75;11.32;;;;;;;2.79;100.00;101629.63;4954018;29;20087;-82
2021/01/09 09:34:11;;;;;;;25.88;10.02;;;;;;;2.84;100.00;101644.75;4940564;29;20484;-83
2021/01/09 09:36:37;;;;;;;24.83;10.48;;;;;;;2.75;100.00;101641.88;4935939;29;20106;-82
2021/01/09 09:39:17;;;;;;;27.02;11.20;;;;;;;2.76;100.00;101638.16;4954043;29;20571;-83
2021/01/09 09:42:02;;;;;;;25.63;11.43;;;;;;;2.82;100.00;101642.38;4938390;28;20027;-82
2021/01/09 09:44:35;;;;;;;24.55;10.45;;;;;;;2.75;100.00;101632.03;4941005;29;20512;-82
2021/01/09 09:47:02;;;;;;;24.98;10.43;;;;;;;2.77;100.00;101631.00;4934650;29;20047;-83
2021/01/09 09:49:30;;;;;;;25.77;11.05;;;;;;;2.77;100.00;101637.06;4935868;29;20097;-82
2021/01/09 09:52:17;;;;;;;25.60;11.25;;;;;;;2.85;100.00;101635.69;4943626;29;20204;-83
2021/01/09 09:54:42;;;;;;;28.83;11.75;;;;;;;2.80;100.00;101633.88;4894000;29;20449;-83
2021/01/09 09:57:21;;;;;;;28.33;11.75;;;;;;;2.78;100.00;101635.22;4877939;29;20111;-83
2021/01/09 10:00:01;;;;;;;28.17;11.45;;;;;;;2.83;100.00;101635.97;4885258;29;20068;-82
2021/01/09 10:02:26;;;;;;;32.67;12.68;;;;;;;2.86;100.00;101638.09;4891553;29;20092;-83
2021/01/09 10:04:52;;;;;;;30.27;12.43;;;;;;;2.87;100.00;101644.97;4880172;29;20568;-82
2021/01/09 10:07:23;;;;;;;27.30;11.48;;;;;;;2.97;100.00;101642.25;4895932;29;20068;-82
2021/01/09 10:10:10;;;;;;;32.25;12.82;;;;;;;2.88;100.00;101651.09;4868955;29;20041;-83
2021/01/09 10:12:35;;;;;;;28.42;11.93;;;;;;;2.87;100.00;101644.97;4805819;29;20097;-82
2021/01/09 10:15:01;;;;;;;28.17;11.75;;;;;;;2.88;100.00;101646.59;4805574;29;20066;-82
2021/01/09 10:17:27;;;;;;;30.80;12.43;;;;;;;3.03;100.00;101643.78;4792316;29;20498;-82
2021/01/09 10:19:52;;;;;;;32.60;12.43;;;;;;;2.94;100.00;101644.66;4800958;29;20074;-82
2021/01/09 10:22:18;;;;;;;31.60;11.50;;;;;;;2.94;100.00;101647.31;4806264;29;20050;-83
2021/01/09 10:24:43;;;;;;;28.40;10.98;;;;;;;2.86;100.00;101648.72;4807094;29;20081;-83
2021/01/09 10:27:08;;;;;;;28.10;11.85;;;;;;;2.98;100.00;101641.16;4806841;29;20525;-82
2021/01/09 10:29:34;;;;;;;26.70;12.07;;;;;;;2.94;100.00;101650.00;4805335;29;20493;-83
2021/01/09 10:32:00;;;;;;;29.00;11.65;;;;;;;2.93;100.00;101653.69;4849559;29;20045;-83
2021/01/09 10:34:25;;;;;;;27.55;11.05;;;;;;;2.93;100.00;101645.72;4835818;29;20132;-83
2021/01/09 10:36:51;;;;;;;30.13;12.10;;;;;;;2.96;100.00;101647.84;4841701;29;20357;-82
2021/01/09 10:39:16;;;;;;;26.00;11.57;;;;;;;2.97;100.00;101644.09;4860320;29;20037;-83
2021/01/09 10:41:42;;;;;;;26.27;11.57;;;;;;;3.11;100.00;101651.16;4857750;29;20562;-82
2021/01/09 10:44:07;;;;;;;26.38;11.73;;;;;;;3.05;100.00;101651.47;4859806;29;20049;-82
2021/01/09 10:46:33;;;;;;;26.50;11.70;;;;;;;3.01;100.00;101643.28;4861608;29;20040;-82
2021/01/09 10:48:58;;;;;;;28.67;12.38;;;;;;;2.98;100.00;101648.38;4865141;29;20653;-83
2021/01/09 10:51:26;;;;;;;29.55;11.57;;;;;;;3.00;100.00;101641.66;4933282;28;20499;-83
2021/01/09 10:53:52;;;;;;;30.65;12.05;;;;;;;3.15;100.00;101646.06;4934695;29;20571;-83
2021/01/09 10:56:18;;;;;;;26.80;12.13;;;;;;;3.13;100.00;101649.03;4956759;29;20091;-83
2021/01/09 10:58:43;;;;;;;28.67;11.38;;;;;;;3.12;100.00;101654.59;4941948;29;20380;-83
2021/01/09 11:01:09;;;;;;;27.45;12.45;;;;;;;3.18;100.00;101651.63;4937061;29;20031;-83
2021/01/09 11:03:55;;;;;;;26.02;11.45;;;;;;;3.22;100.00;101651.84;4950787;29;20562;-83
2021/01/09 11:06:22;;;;;;;28.02;11.80;;;;;;;3.07;100.00;101644.81;4905542;29;20118;-82
2021/01/09 11:08:48;;;;;;;27.85;12.00;;;;;;;3.13;100.00;101648.22;4910234;29;20043;-83
2021/01/09 11:11:13;;;;;;;27.63;11.88;;;;;;;3.17;100.00;101651.91;4887348;29;20555;-82
2021/01/09 11:13:39;;;;;;;27.98;11.07;;;;;;;3.12;100.00;101642.09;4885003;29;20032;-83
2021/01/09 11:16:04;;;;;;;26.05;11.20;;;;;;;3.06;100.00;101650.44;4878456;29;20120;-83